Dades de l'estació automàtica Os de Balaguer - el Monestir d'Avellanes
Resum diari
21:30 TU| Temperatura mitjana | 13.6 °C | |
|---|---|---|
| Temperatura màxima | 21.9 °C | 11:39 TU |
| Temperatura mínima | 7.9 °C | 21:49 TU |
| Humitat relativa mitjana | 86% | |
| Precipitació acumulada | 9.0 mm | |
| Ratxa màxima del vent (6 m) | 46.8 km/h - 307º | 17:28 TU |
| Irradiació solar global | 17.5 MJ/m2 | |
El tram horari està expressat en Temps Universal (TU). Cal sumar una hora en horari d'hivern i dues en horari d'estiu per passar a l'hora oficial.
Os de Balaguer - el Monestir d'Avellanes
| Municipi | Os de Balaguer |
|---|---|
| Comarca | Noguera |
| Altitud | 577 m |
| Data alta | 07.07.1995 |
| Estat actual | Operativa |
| Període TU |
TM °C |
TX °C |
TN °C |
HRM % |
PPT mm |
VVM (6 m) km/h |
DVM (6 m) graus |
VVX (6 m) km/h |
RS W/m2 |
|---|---|---|---|---|---|---|---|---|---|
| 00:00 - 00:30 | 10.7 | 10.9 | 10.4 | 98 | 0.0 | 3.2 | 50 | 8.3 | 0 |
| 00:30 - 01:00 | 10.5 | 10.7 | 10.4 | 99 | 0.0 | 1.4 | 80 | 7.2 | 0 |
| 01:00 - 01:30 | 10.9 | 11.2 | 10.7 | 96 | 0.0 | 4.0 | 81 | 10.1 | 0 |
| 01:30 - 02:00 | 11.3 | 11.5 | 11.0 | 94 | 0.0 | 5.8 | 91 | 17.3 | 0 |
| 02:00 - 02:30 | 11.4 | 11.5 | 11.4 | 93 | 0.0 | 5.4 | 100 | 14.0 | 0 |
| 02:30 - 03:00 | 11.5 | 11.5 | 11.3 | 95 | 0.1 | 1.8 | 136 | 7.9 | 0 |
| 03:00 - 03:30 | 11.1 | 11.3 | 10.9 | 99 | 1.2 | 5.0 | 97 | 10.1 | 0 |
| 03:30 - 04:00 | 10.8 | 10.9 | 10.8 | 100 | 0.2 | 8.3 | 76 | 19.1 | 0 |
| 04:00 - 04:30 | 10.8 | 10.8 | 10.7 | 100 | 0.0 | 9.0 | 69 | 19.8 | 0 |
| 04:30 - 05:00 | 10.5 | 10.7 | 10.3 | 100 | 0.0 | 1.8 | 85 | 10.4 | 2 |
| 05:00 - 05:30 | 10.2 | 10.3 | 10.0 | 100 | 0.0 | 0.4 | 198 | 2.2 | 20 |
| 05:30 - 06:00 | 10.3 | 11.0 | 10.0 | 100 | 0.0 | 1.1 | 228 | 7.2 | 89 |
| 06:00 - 06:30 | 11.4 | 11.8 | 10.9 | 100 | 0.0 | 2.2 | 52 | 7.6 | 153 |
| 06:30 - 07:00 | 12.1 | 12.4 | 11.8 | 99 | 0.0 | 2.5 | 84 | 7.2 | 164 |
| 07:00 - 07:30 | 12.9 | 13.4 | 12.4 | 96 | 0.0 | 4.3 | 91 | 10.4 | 259 |
| 07:30 - 08:00 | 14.7 | 16.0 | 13.4 | 88 | 0.0 | 4.7 | 72 | 11.2 | 577 |
| 08:00 - 08:30 | 15.2 | 16.2 | 14.6 | 84 | 0.0 | 5.0 | 73 | 13.0 | 338 |
| 08:30 - 09:00 | 14.7 | 15.1 | 14.4 | 84 | 0.0 | 5.0 | 65 | 11.2 | 203 |
| 09:00 - 09:30 | 16.1 | 17.1 | 15.1 | 77 | 0.0 | 3.6 | 96 | 9.7 | 514 |
| 09:30 - 10:00 | 17.4 | 19.3 | 16.3 | 71 | 0.0 | 2.5 | 168 | 8.6 | 673 |
| 10:00 - 10:30 | 18.2 | 18.8 | 17.5 | 66 | 0.0 | 4.7 | 121 | 12.2 | 872 |
| 10:30 - 11:00 | 19.1 | 20.1 | 18.6 | 61 | 0.0 | 5.4 | 104 | 14.4 | 949 |
| 11:00 - 11:30 | 20.1 | 20.9 | 19.2 | 58 | 0.0 | 3.2 | 168 | 13.7 | 840 |
| 11:30 - 12:00 | 20.9 | 21.9 | 19.8 | 53 | 0.0 | 4.0 | 233 | 13.3 | 705 |
| 12:00 - 12:30 | 18.9 | 19.9 | 17.6 | 62 | 0.0 | 3.6 | 232 | 13.7 | 226 |
| 12:30 - 13:00 | 16.6 | 17.5 | 15.9 | 78 | 0.4 | 2.9 | 265 | 9.7 | 207 |
| 13:00 - 13:30 | 17.2 | 17.8 | 16.8 | 82 | 0.0 | 4.0 | 256 | 13.3 | 528 |
| 13:30 - 14:00 | 18.0 | 18.8 | 17.3 | 76 | 0.0 | 4.7 | 265 | 13.0 | 480 |
| 14:00 - 14:30 | 17.8 | 19.2 | 17.2 | 73 | 0.0 | 3.6 | 250 | 9.7 | 506 |
| 14:30 - 15:00 | 18.4 | 18.8 | 18.0 | 68 | 0.0 | 2.9 | 250 | 9.7 | 396 |
| 15:00 - 15:30 | 18.4 | 19.1 | 17.9 | 68 | 0.0 | 3.2 | 234 | 10.4 | 342 |
| 15:30 - 16:00 | 17.8 | 18.1 | 17.6 | 68 | 0.0 | 4.0 | 258 | 14.0 | 226 |
| 16:00 - 16:30 | 17.9 | 18.6 | 17.5 | 61 | 0.0 | 3.6 | 244 | 12.2 | 256 |
| 16:30 - 17:00 | 17.6 | 17.8 | 17.4 | 67 | 0.0 | 2.5 | 225 | 9.4 | 172 |
| 17:00 - 17:30 | 16.2 | 17.4 | 12.5 | 70 | 0.1 | 7.2 | 275 | 46.8 | 25 |
| 17:30 - 18:00 | 9.7 | 11.8 | 9.3 | 94 | 3.5 | 14.0 | 313 | 39.2 | 4 |
| 18:00 - 18:30 | 9.3 | 9.3 | 9.2 | 98 | 1.1 | 7.9 | 310 | 24.1 | 2 |
| 18:30 - 19:00 | 9.4 | 9.5 | 9.2 | 99 | 1.5 | 6.5 | 327 | 18.0 | 4 |
| 19:00 - 19:30 | 9.4 | 9.4 | 9.1 | 100 | 0.8 | 4.7 | 52 | 9.7 | 0 |
| 19:30 - 20:00 | 8.8 | 9.1 | 8.5 | 100 | 0.0 | 2.9 | 55 | 8.6 | 0 |
| 20:00 - 20:30 | 8.3 | 8.5 | 8.0 | 100 | 0.0 | 1.8 | 258 | 5.8 | 0 |
| 20:30 - 21:00 | 8.9 | 9.0 | 8.6 | 100 | 0.1 | 1.8 | 253 | 6.8 | 0 |
| 21:00 - 21:30 | 8.7 | 8.9 | 8.4 | 100 | 0.0 | 2.9 | 266 | 8.3 | 0 |
| 21:30 - 22:00 | 8.2 | 8.4 | 7.9 | 100 | 0.0 | 2.9 | 309 | 10.8 | 0 |
| 22:00 - 22:30 | (s/d) | (s/d) | (s/d) | (s/d) | (s/d) | (s/d) | (s/d) | (s/d) | (s/d) |
Les dades en taronja només han passat un control de qualitat automàtic. Resta pendent la seva validació definitiva.